createdAt,value
2023-04-11T00:00:13.204Z,9.50
2023-04-11T00:02:40.524Z,9.60
2023-04-11T00:05:08.616Z,9.93
2023-04-11T00:07:36.120Z,9.63
2023-04-11T00:10:03.406Z,10.38
2023-04-11T00:12:31.004Z,8.93
2023-04-11T00:14:57.912Z,9.50
2023-04-11T00:17:25.059Z,9.05
2023-04-11T00:19:53.380Z,8.88
2023-04-11T00:22:20.705Z,9.83
2023-04-11T00:24:47.575Z,10.25
2023-04-11T00:27:16.017Z,9.65
2023-04-11T00:29:43.210Z,9.27
2023-04-11T00:32:10.286Z,9.93
2023-04-11T00:34:37.529Z,9.77
2023-04-11T00:37:04.690Z,9.95
2023-04-11T00:39:34.199Z,10.13
2023-04-11T00:42:08.913Z,9.38
2023-04-11T00:44:36.496Z,10.25
2023-04-11T00:47:07.275Z,9.93
2023-04-11T00:49:35.309Z,10.25
2023-04-11T00:52:03.136Z,9.38
2023-04-11T00:54:33.723Z,10.27
2023-04-11T00:57:05.777Z,10.05
2023-04-11T00:59:33.734Z,9.07
2023-04-11T01:02:01.759Z,9.85
2023-04-11T01:04:30.029Z,9.48
2023-04-11T01:07:04.275Z,10.25
2023-04-11T01:09:34.048Z,11.02
2023-04-11T01:12:03.012Z,11.02
2023-04-11T01:14:30.716Z,10.45
2023-04-11T01:16:58.781Z,9.80
2023-04-11T01:19:26.725Z,10.00
2023-04-11T01:21:56.536Z,10.35
2023-04-11T01:24:24.148Z,10.82
2023-04-11T01:26:52.118Z,9.73
2023-04-11T01:29:20.441Z,11.00
2023-04-11T01:31:47.417Z,10.60
2023-04-11T01:34:17.154Z,10.05
2023-04-11T01:36:44.968Z,10.50
2023-04-11T01:39:11.947Z,9.77
2023-04-11T01:41:40.850Z,10.25
2023-04-11T01:44:08.272Z,10.85
2023-04-11T01:46:36.518Z,10.98
2023-04-11T01:49:04.062Z,10.98
2023-04-11T01:51:32.251Z,10.37
2023-04-11T01:53:59.325Z,11.27
2023-04-11T01:56:26.512Z,10.90
2023-04-11T01:58:54.085Z,11.02
2023-04-11T02:01:21.717Z,10.63
2023-04-11T02:03:49.039Z,11.20
2023-04-11T02:06:16.910Z,10.38
2023-04-11T02:08:44.845Z,12.02
2023-04-11T02:11:11.958Z,11.05
2023-04-11T02:13:38.995Z,11.77
2023-04-11T02:16:15.278Z,11.30
2023-04-11T02:18:44.227Z,11.27
2023-04-11T02:21:12.135Z,11.55
2023-04-11T02:23:39.516Z,11.30
2023-04-11T02:26:06.592Z,11.10
2023-04-11T02:28:33.749Z,11.77
2023-04-11T02:31:01.024Z,12.95
2023-04-11T02:33:28.256Z,11.85
2023-04-11T02:35:55.726Z,11.88
2023-04-11T02:38:23.201Z,11.45
2023-04-11T02:40:51.557Z,12.10
2023-04-11T02:43:18.665Z,12.43
2023-04-11T02:45:45.809Z,13.52
2023-04-11T02:48:14.458Z,12.82
2023-04-11T02:50:44.785Z,12.43
2023-04-11T02:53:12.379Z,12.25
2023-04-11T02:55:46.840Z,13.00
2023-04-11T02:58:17.814Z,12.80
2023-04-11T03:00:49.512Z,13.23
2023-04-11T03:03:16.880Z,12.48
2023-04-11T03:08:16.048Z,13.00
2023-04-11T03:10:49.823Z,13.05
2023-04-11T03:13:17.496Z,13.82
2023-04-11T03:15:45.181Z,13.98
2023-04-11T03:18:13.094Z,13.07
2023-04-11T03:20:43.654Z,14.25
2023-04-11T03:25:40.605Z,14.43
2023-04-11T03:28:08.589Z,13.95
2023-04-11T03:30:35.787Z,14.63
2023-04-11T03:33:02.879Z,14.30
2023-04-11T03:35:31.755Z,14.90
2023-04-11T03:37:59.830Z,13.47
2023-04-11T03:40:27.407Z,14.40
2023-04-11T03:43:06.906Z,14.57
2023-04-11T03:45:36.533Z,15.25
2023-04-11T03:48:06.921Z,14.90
2023-04-11T03:50:59.570Z,14.93
2023-04-11T03:53:36.313Z,15.40
2023-04-11T03:56:17.211Z,13.65
2023-04-11T03:58:44.472Z,15.32
2023-04-11T04:01:11.922Z,15.40
2023-04-11T04:03:39.824Z,14.65
2023-04-11T04:06:10.810Z,14.48
2023-04-11T04:08:39.763Z,14.52
2023-04-11T04:11:07.251Z,14.98
2023-04-11T04:16:12.908Z,14.52
2023-04-11T04:18:42.892Z,15.80
2023-04-11T04:21:11.068Z,15.40
2023-04-11T04:23:39.558Z,15.68
2023-04-11T04:26:25.208Z,14.40
2023-04-11T04:29:34.184Z,15.43
2023-04-11T04:32:11.824Z,15.68
2023-04-11T04:34:49.363Z,15.40
2023-04-11T04:37:25.008Z,15.80
2023-04-11T04:40:09.171Z,16.52
2023-04-11T04:42:45.136Z,16.58
2023-04-11T04:45:12.212Z,16.90
2023-04-11T04:47:40.513Z,17.38
2023-04-11T04:50:08.576Z,17.95
2023-04-11T04:52:35.540Z,17.48
2023-04-11T04:55:02.651Z,16.40
2023-04-11T04:57:32.315Z,16.70
2023-04-11T05:00:00.589Z,17.23
2023-04-11T05:05:04.062Z,16.83
2023-04-11T05:07:32.943Z,16.67
2023-04-11T05:10:02.463Z,16.77
2023-04-11T05:12:30.704Z,17.35
2023-04-11T05:15:03.419Z,16.13
2023-04-11T05:17:33.047Z,18.02
2023-04-11T05:20:00.544Z,17.25
2023-04-11T05:22:28.229Z,18.15
2023-04-11T05:24:57.215Z,17.35
2023-04-11T05:27:24.319Z,16.63
2023-04-11T05:29:51.665Z,16.23
2023-04-11T05:32:19.650Z,17.27
2023-04-11T05:34:58.150Z,17.27
2023-04-11T05:37:40.165Z,16.27
2023-04-11T05:40:09.574Z,16.25
2023-04-11T05:45:06.287Z,16.80
2023-04-11T05:47:33.739Z,15.05
2023-04-11T05:50:01.454Z,16.00
2023-04-11T05:52:29.040Z,15.48
2023-04-11T05:54:56.336Z,15.63
2023-04-11T05:57:23.886Z,15.40
2023-04-11T05:59:53.288Z,14.70
2023-04-11T06:02:20.774Z,15.65
2023-04-11T06:04:48.281Z,14.15
2023-04-11T06:07:15.827Z,15.80
2023-04-11T06:09:43.145Z,14.75
2023-04-11T06:12:10.658Z,14.85
2023-04-11T06:14:40.641Z,14.32
2023-04-11T06:17:08.034Z,13.43
2023-04-11T06:19:34.982Z,14.15
2023-04-11T06:22:02.030Z,13.68
2023-04-11T06:24:37.455Z,13.40
2023-04-11T06:27:04.766Z,12.70
2023-04-11T06:29:32.461Z,14.18
2023-04-11T06:31:59.604Z,13.00
2023-04-11T06:34:26.767Z,13.23
2023-04-11T06:36:54.066Z,12.43
2023-04-11T06:39:21.906Z,11.80
2023-04-11T06:41:49.852Z,11.32
2023-04-11T06:44:24.752Z,12.00
2023-04-11T06:46:51.924Z,12.45
2023-04-11T06:49:19.093Z,11.32
2023-04-11T06:51:47.348Z,11.63
2023-04-11T06:54:14.241Z,11.55
2023-04-11T06:56:41.287Z,11.75
2023-04-11T06:59:08.425Z,11.63
2023-04-11T07:01:39.540Z,12.63
2023-04-11T07:04:07.438Z,12.18
2023-04-11T07:06:35.990Z,10.60
2023-04-11T07:09:06.776Z,11.57
2023-04-11T07:11:33.928Z,10.57
2023-04-11T07:14:01.471Z,10.70
2023-04-11T07:16:28.725Z,11.02
2023-04-11T07:18:55.937Z,10.15
2023-04-11T07:21:23.194Z,11.05
2023-04-11T07:23:50.204Z,11.15
2023-04-11T07:26:18.189Z,10.43
2023-04-11T07:28:48.316Z,11.18
2023-04-11T07:31:21.678Z,10.23
2023-04-11T07:33:48.935Z,10.80
2023-04-11T07:36:16.467Z,10.13
2023-04-11T07:38:43.628Z,9.65
2023-04-11T07:41:10.544Z,10.38
2023-04-11T07:43:38.901Z,9.50
2023-04-11T07:46:06.909Z,9.65
2023-04-11T07:48:34.041Z,10.30
2023-04-11T07:51:01.862Z,9.43
2023-04-11T07:53:31.086Z,9.38
2023-04-11T07:55:58.468Z,10.18
2023-04-11T07:58:25.624Z,9.43
2023-04-11T08:00:53.714Z,9.38
2023-04-11T08:03:21.200Z,9.48
2023-04-11T08:05:48.395Z,9.10
2023-04-11T08:08:19.007Z,8.98
2023-04-11T08:10:46.132Z,9.05
2023-04-11T08:13:13.398Z,9.00
2023-04-11T08:15:40.568Z,9.05
2023-04-11T08:18:07.669Z,8.98
2023-04-11T08:20:34.964Z,9.80
2023-04-11T08:23:06.237Z,7.63
2023-04-11T08:25:33.570Z,8.18
2023-04-11T08:28:00.646Z,9.85
2023-04-11T08:30:27.733Z,8.48
2023-04-11T08:32:54.855Z,8.80
2023-04-11T08:35:22.155Z,8.70
2023-04-11T08:37:50.652Z,8.53
2023-04-11T08:40:18.216Z,6.45
2023-04-11T08:42:46.106Z,8.25
2023-04-11T08:45:13.458Z,8.05
2023-04-11T08:47:41.985Z,8.02
2023-04-11T08:50:11.173Z,6.88
2023-04-11T08:52:40.181Z,7.38
2023-04-11T08:55:07.497Z,6.97
2023-04-11T08:57:35.003Z,7.35
2023-04-11T09:00:19.041Z,7.75
2023-04-11T09:03:04.242Z,7.03
2023-04-11T09:05:35.544Z,7.88
2023-04-11T09:08:07.683Z,7.50
2023-04-11T09:10:35.912Z,7.43
2023-04-11T09:13:21.187Z,8.45
2023-04-11T09:15:48.624Z,7.63
2023-04-11T09:18:33.009Z,7.47
2023-04-11T09:21:01.835Z,7.80
2023-04-11T09:23:29.242Z,8.18
2023-04-11T09:25:57.220Z,7.47
2023-04-11T09:28:24.798Z,8.13
2023-04-11T09:30:53.612Z,7.95
2023-04-11T09:33:23.187Z,7.35
2023-04-11T09:35:54.840Z,7.93
2023-04-11T09:38:36.728Z,7.00
2023-04-11T09:41:04.605Z,6.97
2023-04-11T09:43:55.707Z,7.88
2023-04-11T09:46:23.223Z,8.13
2023-04-11T09:48:51.981Z,7.72
2023-04-11T09:51:35.059Z,7.70
2023-04-11T09:54:04.501Z,8.70
2023-04-11T09:56:36.336Z,7.95
2023-04-11T09:59:04.437Z,8.70
2023-04-11T10:01:32.319Z,8.73
2023-04-11T10:04:01.062Z,8.45
2023-04-11T10:06:39.152Z,9.23
2023-04-11T10:09:11.767Z,8.23
2023-04-11T10:11:44.176Z,8.18
2023-04-11T10:14:39.463Z,8.93
2023-04-11T10:17:22.698Z,8.23
2023-04-11T10:19:56.667Z,8.82
2023-04-11T10:22:46.579Z,7.15
2023-04-11T10:25:17.979Z,7.93
2023-04-11T10:27:53.564Z,8.07
2023-04-11T10:30:43.697Z,7.97
2023-04-11T10:33:19.536Z,8.10
2023-04-11T10:36:10.158Z,8.50
2023-04-11T10:38:43.753Z,7.88
2023-04-11T10:41:22.918Z,7.30
2023-04-11T10:46:26.733Z,7.15
2023-04-11T10:49:04.805Z,7.28
2023-04-11T10:51:33.362Z,7.18
2023-04-11T10:54:00.932Z,7.67
2023-04-11T10:56:40.909Z,7.53
2023-04-11T10:59:10.754Z,7.53
2023-04-11T11:04:11.073Z,7.22
2023-04-11T11:06:47.212Z,6.23
2023-04-11T11:09:23.560Z,6.35
2023-04-11T11:12:16.191Z,6.40
2023-04-11T11:14:45.803Z,6.68
2023-04-11T11:17:14.495Z,7.25
2023-04-11T11:19:45.897Z,7.68
2023-04-11T11:22:17.413Z,7.65
2023-04-11T11:24:44.352Z,6.45
2023-04-11T11:27:22.715Z,6.97
2023-04-11T11:29:50.974Z,8.13
2023-04-11T11:32:24.898Z,7.38
2023-04-11T11:34:53.462Z,7.72
2023-04-11T11:37:21.537Z,7.47
2023-04-11T11:39:49.556Z,7.57
2023-04-11T11:42:17.123Z,7.05
2023-04-11T11:44:44.317Z,7.30
2023-04-11T11:47:15.584Z,6.75
2023-04-11T11:49:44.608Z,7.25
2023-04-11T11:52:12.626Z,7.00
2023-04-11T11:54:47.386Z,7.45
2023-04-11T11:57:24.434Z,7.40
2023-04-11T11:59:55.097Z,6.63
2023-04-11T12:02:24.167Z,7.00
2023-04-11T12:05:00.264Z,6.55
2023-04-11T12:07:32.739Z,6.65
2023-04-11T12:10:01.324Z,7.30
2023-04-11T12:12:38.612Z,6.47
2023-04-11T12:15:16.863Z,6.47
2023-04-11T12:17:47.759Z,6.90
2023-04-11T12:20:17.642Z,7.15
2023-04-11T12:22:44.615Z,7.53
2023-04-11T12:25:14.176Z,7.15
2023-04-11T12:27:43.307Z,7.35
2023-04-11T12:30:13.469Z,7.28
2023-04-11T12:32:41.395Z,6.72
2023-04-11T12:35:08.842Z,7.45
2023-04-11T12:37:35.974Z,7.18
2023-04-11T12:40:07.209Z,6.47
2023-04-11T12:42:36.860Z,7.28
2023-04-11T12:45:11.045Z,6.70
2023-04-11T12:47:38.321Z,7.10
2023-04-11T12:50:07.264Z,6.90
2023-04-11T12:52:35.189Z,6.68
2023-04-11T12:55:02.614Z,5.80
2023-04-11T12:57:30.875Z,6.20
2023-04-11T12:59:58.037Z,6.07
2023-04-11T13:02:25.503Z,5.50
2023-04-11T13:04:55.710Z,6.40
2023-04-11T13:07:23.328Z,6.68
2023-04-11T13:09:50.519Z,6.57
2023-04-11T13:12:17.790Z,6.68
2023-04-11T13:14:44.940Z,6.90
2023-04-11T13:17:12.078Z,7.28
2023-04-11T13:19:39.183Z,6.78
2023-04-11T13:22:06.638Z,6.57
2023-04-11T13:24:33.749Z,6.85
2023-04-11T13:27:01.211Z,6.22
2023-04-11T13:29:28.348Z,6.50
2023-04-11T13:31:55.888Z,6.45
2023-04-11T13:34:23.177Z,7.22
2023-04-11T13:36:51.428Z,6.57
2023-04-11T13:39:18.414Z,6.95
2023-04-11T13:41:46.008Z,7.63
2023-04-11T13:44:13.028Z,7.20
2023-04-11T13:46:41.501Z,7.03
2023-04-11T13:49:08.741Z,8.13
2023-04-11T13:51:35.834Z,8.13
2023-04-11T13:54:03.025Z,7.40
2023-04-11T13:56:30.092Z,8.32
2023-04-11T13:58:57.532Z,7.60
2023-04-11T14:01:24.755Z,8.15
2023-04-11T14:03:52.370Z,8.10
2023-04-11T14:06:19.899Z,7.25
2023-04-11T14:08:48.646Z,7.72
2023-04-11T14:11:16.616Z,7.88
2023-04-11T14:13:43.669Z,7.80
2023-04-11T14:16:11.437Z,6.75
2023-04-11T14:18:38.409Z,7.50
2023-04-11T14:21:23.969Z,8.25
2023-04-11T14:23:51.172Z,7.97
2023-04-11T14:26:18.969Z,8.15
2023-04-11T14:28:46.158Z,8.60
2023-04-11T14:31:17.812Z,8.43
2023-04-11T14:33:44.918Z,8.27
2023-04-11T14:36:11.909Z,7.80
2023-04-11T14:38:39.377Z,8.30
2023-04-11T14:41:07.242Z,8.80
2023-04-11T14:43:34.547Z,8.93
2023-04-11T14:46:01.672Z,8.98
2023-04-11T14:48:28.971Z,8.68
2023-04-11T14:50:56.302Z,8.25
2023-04-11T14:53:23.272Z,8.55
2023-04-11T14:55:50.188Z,10.02
2023-04-11T14:58:17.652Z,9.98
2023-04-11T15:00:44.844Z,8.88
2023-04-11T15:03:12.441Z,8.88
2023-04-11T15:05:40.069Z,8.82
2023-04-11T15:08:08.220Z,8.95
2023-04-11T15:10:35.132Z,8.95
2023-04-11T15:13:02.182Z,9.55
2023-04-11T15:15:29.200Z,9.80
2023-04-11T15:18:19.855Z,8.68
2023-04-11T15:20:46.956Z,9.23
2023-04-11T15:23:13.948Z,9.57
2023-04-11T15:25:40.957Z,9.00
2023-04-11T15:28:08.726Z,8.95
2023-04-11T15:30:45.429Z,9.27
2023-04-11T15:33:12.883Z,8.80
2023-04-11T15:35:43.676Z,9.93
2023-04-11T15:38:12.456Z,9.32
2023-04-11T15:40:39.838Z,9.20
2023-04-11T15:43:08.677Z,9.82
2023-04-11T15:45:37.303Z,9.50
2023-04-11T15:48:04.540Z,9.27
2023-04-11T15:50:32.374Z,9.50
2023-04-11T15:52:59.632Z,9.90
2023-04-11T15:55:28.038Z,9.05
2023-04-11T15:57:55.956Z,10.48
2023-04-11T16:00:23.197Z,9.27
2023-04-11T16:02:50.848Z,10.60
2023-04-11T16:05:20.998Z,9.57
2023-04-11T16:07:48.467Z,9.75
2023-04-11T16:10:15.681Z,10.38
2023-04-11T16:12:42.796Z,9.63
2023-04-11T16:15:10.052Z,10.18
2023-04-11T16:17:37.070Z,9.98
2023-04-11T16:20:08.835Z,10.48
2023-04-11T16:22:37.599Z,9.90
2023-04-11T16:25:08.321Z,10.23
2023-04-11T16:27:35.558Z,9.75
2023-04-11T16:30:09.459Z,10.77
2023-04-11T16:32:36.673Z,9.77
2023-04-11T16:35:03.857Z,10.52
2023-04-11T16:37:30.919Z,10.27
2023-04-11T16:39:58.094Z,10.63
2023-04-11T16:42:25.288Z,10.57
2023-04-11T16:44:52.441Z,9.35
2023-04-11T16:47:21.080Z,10.73
2023-04-11T16:49:48.251Z,9.25
2023-04-11T16:52:15.526Z,9.50
2023-04-11T16:54:42.876Z,9.68
2023-04-11T16:57:09.935Z,10.52
2023-04-11T16:59:37.195Z,10.10
2023-04-11T17:02:04.226Z,10.70
2023-04-11T17:04:31.577Z,10.05
2023-04-11T17:06:58.741Z,10.73
2023-04-11T17:09:27.083Z,10.68
2023-04-11T17:11:54.755Z,10.25
2023-04-11T17:14:22.085Z,10.35
2023-04-11T17:16:49.166Z,9.77
2023-04-11T17:19:16.263Z,9.90
2023-04-11T17:21:43.332Z,11.23
2023-04-11T17:24:10.419Z,9.40
2023-04-11T17:26:37.657Z,10.15
2023-04-11T17:29:06.661Z,10.07
2023-04-11T17:31:34.085Z,10.05
2023-04-11T17:34:02.062Z,10.57
2023-04-11T17:36:29.190Z,9.15
2023-04-11T17:38:56.304Z,10.73
2023-04-11T17:41:23.701Z,10.18
2023-04-11T17:43:50.788Z,11.23
2023-04-11T17:46:18.448Z,11.82
2023-04-11T17:48:45.470Z,9.77
2023-04-11T17:51:13.747Z,10.48
2023-04-11T17:53:41.350Z,10.15
2023-04-11T17:56:15.620Z,10.82
2023-04-11T17:58:44.925Z,10.50
2023-04-11T18:01:12.491Z,9.60
2023-04-11T18:03:40.452Z,11.80
2023-04-11T18:06:08.022Z,10.50
2023-04-11T18:08:49.879Z,10.95
2023-04-11T18:11:19.379Z,10.80
2023-04-11T18:13:49.451Z,10.18
2023-04-11T18:16:17.731Z,10.50
2023-04-11T18:18:46.586Z,10.18
2023-04-11T18:21:14.521Z,10.70
2023-04-11T18:23:41.756Z,10.57
2023-04-11T18:26:09.048Z,10.13
2023-04-11T18:28:36.573Z,9.85
2023-04-11T18:31:04.508Z,10.27
2023-04-11T18:33:34.533Z,9.45
2023-04-11T18:36:03.283Z,10.05
2023-04-11T18:38:30.494Z,9.82
2023-04-11T18:41:03.911Z,10.05
2023-04-11T18:43:33.857Z,10.13
2023-04-11T18:46:01.886Z,9.35
2023-04-11T18:48:29.272Z,10.73
2023-04-11T18:51:00.847Z,9.75
2023-04-11T18:53:30.153Z,9.45
2023-04-11T18:55:58.040Z,9.35
2023-04-11T18:58:27.007Z,9.13
2023-04-11T19:00:56.889Z,9.00
2023-04-11T19:03:24.355Z,10.10
2023-04-11T19:05:51.928Z,9.70
2023-04-11T19:08:19.092Z,9.30
2023-04-11T19:10:46.218Z,9.50
2023-04-11T19:13:13.244Z,8.93
2023-04-11T19:15:41.589Z,9.10
2023-04-11T19:18:10.538Z,9.07
2023-04-11T19:20:39.023Z,8.38
2023-04-11T19:23:06.607Z,9.30
2023-04-11T19:25:36.153Z,8.60
2023-04-11T19:28:03.428Z,9.15
2023-04-11T19:30:30.539Z,8.35
2023-04-11T19:32:58.850Z,8.45
2023-04-11T19:35:26.687Z,9.37
2023-04-11T19:37:54.933Z,9.38
2023-04-11T19:40:25.139Z,9.25
2023-04-11T19:42:52.456Z,10.00
2023-04-11T19:45:19.722Z,8.80
2023-04-11T19:47:46.882Z,8.82
2023-04-11T19:50:14.563Z,8.18
2023-04-11T19:52:43.308Z,8.52
2023-04-11T19:55:13.192Z,8.60
2023-04-11T19:57:41.223Z,8.15
2023-04-11T20:00:13.977Z,7.28
2023-04-11T20:02:46.413Z,8.38
2023-04-11T20:05:16.074Z,8.18
2023-04-11T20:10:12.142Z,7.53
2023-04-11T20:12:40.052Z,7.73
2023-04-11T20:15:08.498Z,8.38
2023-04-11T20:17:35.763Z,8.35
2023-04-11T20:20:06.502Z,8.52
2023-04-11T20:22:33.797Z,7.68
2023-04-11T20:25:01.123Z,8.27
2023-04-11T20:27:29.759Z,8.65
2023-04-11T20:29:57.316Z,8.98
2023-04-11T20:32:24.567Z,8.27
2023-04-11T20:34:51.798Z,7.70
2023-04-11T20:37:19.730Z,8.02
2023-04-11T20:39:51.683Z,11.20
2023-04-11T20:42:20.704Z,7.60
2023-04-11T20:44:47.841Z,7.95
2023-04-11T20:47:15.174Z,7.88
2023-04-11T20:49:45.817Z,6.97
2023-04-11T20:52:13.366Z,7.53
2023-04-11T20:54:41.152Z,7.45
2023-04-11T20:57:08.324Z,7.70
2023-04-11T20:59:37.071Z,7.35
2023-04-11T21:02:04.202Z,7.85
2023-04-11T21:04:31.312Z,8.05
2023-04-11T21:06:58.792Z,7.35
2023-04-11T21:09:25.973Z,7.57
2023-04-11T21:11:53.021Z,8.00
2023-04-11T21:14:20.012Z,7.47
2023-04-11T21:16:47.097Z,7.97
2023-04-11T21:19:14.079Z,7.55
2023-04-11T21:21:41.105Z,7.40
2023-04-11T21:24:09.579Z,7.82
2023-04-11T21:26:36.952Z,8.27
2023-04-11T21:29:03.920Z,7.70
2023-04-11T21:31:31.029Z,6.95
2023-04-11T21:33:58.738Z,7.53
2023-04-11T21:36:26.628Z,7.18
2023-04-11T21:38:53.803Z,7.80
2023-04-11T21:41:21.316Z,7.90
2023-04-11T21:43:48.517Z,7.82
2023-04-11T21:46:15.572Z,7.93
2023-04-11T21:48:43.208Z,8.02
2023-04-11T21:51:10.855Z,7.78
2023-04-11T21:53:38.022Z,8.23
2023-04-11T21:56:07.584Z,7.55
2023-04-11T21:58:35.099Z,7.97
2023-04-11T22:01:03.116Z,7.18
2023-04-11T22:03:30.689Z,7.63
2023-04-11T22:05:58.834Z,8.90
2023-04-11T22:08:29.391Z,7.78
2023-04-11T22:10:56.692Z,8.70
2023-04-11T22:13:24.010Z,8.25
2023-04-11T22:16:10.439Z,8.00
2023-04-11T22:18:49.893Z,7.30
2023-04-11T22:23:58.240Z,7.50
2023-04-11T22:26:29.742Z,8.15
2023-04-11T22:29:02.030Z,8.13
2023-04-11T22:31:30.631Z,7.75
2023-04-11T22:33:58.158Z,8.13
2023-04-11T22:36:25.488Z,8.20
2023-04-11T22:38:53.085Z,9.27
2023-04-11T22:54:57.227Z,7.90
2023-04-11T22:57:24.456Z,7.88
2023-04-11T22:59:52.428Z,8.82
2023-04-11T23:02:19.530Z,8.20
2023-04-11T23:04:48.879Z,8.32
2023-04-11T23:09:44.983Z,9.13
2023-04-11T23:12:12.219Z,8.52
2023-04-11T23:14:39.615Z,8.48
2023-04-11T23:17:06.690Z,8.50
2023-04-11T23:19:34.185Z,9.43
2023-04-11T23:22:01.251Z,8.60
2023-04-11T23:24:29.066Z,9.20
2023-04-11T23:26:56.951Z,9.30
2023-04-11T23:29:24.056Z,8.95
2023-04-11T23:31:51.620Z,8.85
2023-04-11T23:34:18.623Z,9.75
2023-04-11T23:36:46.050Z,8.52
2023-04-11T23:39:12.941Z,9.68
2023-04-11T23:41:40.320Z,9.80
2023-04-11T23:44:07.282Z,8.48
2023-04-11T23:46:34.443Z,9.00
2023-04-11T23:49:01.504Z,9.18
2023-04-11T23:51:28.444Z,9.27
2023-04-11T23:53:56.291Z,9.60
2023-04-11T23:56:23.830Z,9.32
2023-04-11T23:58:51.212Z,8.30
